Time,TemperatureF,DewpointF,PressureIn,WindDirection,WindDirectionDegrees,WindSpeedMPH,WindSpeedGustMPH,Humidity,HourlyPrecipIn,Conditions,Clouds,dailyrainin,SoftwareType,DateUTC
2013-04-08 00:02:00,40.0,40.0,-100.00,East,100,5.0,6.0,100,-99.99,,,-99.99,,2013-04-08 07:02:00,
2013-04-08 00:10:00,40.0,40.0,-100.00,ESE,115,2.0,6.0,100,-99.99,,,-99.99,,2013-04-08 07:10:00,
2013-04-08 01:02:00,40.0,40.0,-100.00,ESE,115,2.0,6.0,100,-99.99,,,-99.99,,2013-04-08 08:02:00,
2013-04-08 01:10:00,40.0,40.0,-100.00,East,100,1.0,3.0,100,-99.99,,,-99.99,,2013-04-08 08:10:00,
2013-04-08 02:02:00,40.0,40.0,-100.00,East,100,1.0,3.0,100,-99.99,,,-99.99,,2013-04-08 09:02:00,
2013-04-08 02:10:00,40.0,40.0,-100.00,East,100,1.0,3.0,100,-99.99,,,-99.99,,2013-04-08 09:10:00,
2013-04-08 03:03:00,40.0,40.0,-100.00,East,100,1.0,3.0,100,-99.99,,,-99.99,,2013-04-08 10:03:00,
2013-04-08 03:10:00,41.0,41.0,-100.00,East,90,0.0,1.0,100,-99.99,,,-99.99,,2013-04-08 10:10:00,
2013-04-08 04:02:00,41.0,41.0,-100.00,East,90,0.0,1.0,100,-99.99,,,-99.99,,2013-04-08 11:02:00,
2013-04-08 04:10:00,41.0,40.0,-100.00,SSE,150,0.0,2.0,96,-99.99,,,-99.99,,2013-04-08 11:10:00,
2013-04-08 05:02:00,41.0,40.0,-100.00,SSE,150,0.0,2.0,96,-99.99,,,-99.99,,2013-04-08 12:02:00,
2013-04-08 05:10:00,40.0,40.0,-100.00,East,80,1.0,3.0,100,-99.99,,,-99.99,,2013-04-08 12:10:00,
2013-04-08 06:02:00,40.0,40.0,-100.00,East,80,1.0,3.0,100,-99.99,,,-99.99,,2013-04-08 13:02:00,
2013-04-08 06:10:00,41.0,40.0,-100.00,SE,140,1.0,3.0,96,-99.99,,,-99.99,,2013-04-08 13:10:00,
2013-04-08 07:02:00,41.0,40.0,-100.00,SE,140,1.0,3.0,96,-99.99,,,-99.99,,2013-04-08 14:02:00,
2013-04-08 07:10:00,41.0,41.0,-100.00,NE,40,0.0,1.0,100,-99.99,,,-99.99,,2013-04-08 14:10:00,
2013-04-08 08:02:00,41.0,41.0,-100.00,NE,40,0.0,1.0,100,-99.99,,,-99.99,,2013-04-08 15:02:00,
2013-04-08 08:10:00,42.0,42.0,-100.00,East,95,3.0,6.0,100,-99.99,,,-99.99,,2013-04-08 15:10:00,
2013-04-08 09:03:00,42.0,42.0,-100.00,East,95,3.0,6.0,100,-99.99,,,-99.99,,2013-04-08 16:03:00,
2013-04-08 09:10:00,44.0,43.0,-100.00,ESE,105,2.0,5.0,96,-99.99,,,-99.99,,2013-04-08 16:10:00,
2013-04-08 10:02:00,44.0,43.0,-100.00,ESE,105,2.0,5.0,96,-99.99,,,-99.99,,2013-04-08 17:02:00,
2013-04-08 10:10:00,46.0,44.0,-100.00,NW,320,0.0,2.0,92,-99.99,,,-99.99,,2013-04-08 17:10:00,
2013-04-08 11:02:00,46.0,44.0,-100.00,NW,320,0.0,2.0,92,-99.99,,,-99.99,,2013-04-08 18:02:00,
2013-04-08 11:10:00,48.0,45.0,-100.00,NNW,330,2.0,5.0,89,-99.99,,,-99.99,,2013-04-08 18:10:00,
2013-04-08 12:02:00,48.0,45.0,-100.00,NNW,330,2.0,5.0,89,-99.99,,,-99.99,,2013-04-08 19:02:00,
2013-04-08 12:10:00,48.0,43.0,-100.00,South,180,1.0,3.0,82,-99.99,,,-99.99,,2013-04-08 19:10:00,
2013-04-08 13:02:00,48.0,43.0,-100.00,South,180,1.0,3.0,82,-99.99,,,-99.99,,2013-04-08 20:02:00,
2013-04-08 13:10:00,51.0,44.0,-100.00,NNW,330,2.0,6.0,76,-99.99,,,-99.99,,2013-04-08 20:10:00,
2013-04-08 14:02:00,51.0,44.0,-100.00,NNW,330,2.0,6.0,76,-99.99,,,-99.99,,2013-04-08 21:02:00,
2013-04-08 14:10:00,50.0,44.0,-100.00,ESE,120,3.0,9.0,79,-99.99,,,-99.99,,2013-04-08 21:10:00,
2013-04-08 15:02:00,50.0,44.0,-100.00,ESE,120,3.0,9.0,79,-99.99,,,-99.99,,2013-04-08 22:02:00,
2013-04-08 15:10:00,50.0,44.0,-100.00,SE,125,3.0,6.0,79,-99.99,,,-99.99,,2013-04-08 22:10:00,
2013-04-08 16:02:00,50.0,44.0,-100.00,SE,125,3.0,6.0,79,-99.99,,,-99.99,,2013-04-08 23:02:00,
2013-04-08 17:10:00,51.0,45.0,-100.00,NW,315,3.0,6.0,79,-99.99,,,-99.99,,2013-04-09 00:10:00,
2013-04-08 18:02:00,51.0,45.0,-100.00,NW,315,3.0,6.0,79,-99.99,,,-99.99,,2013-04-09 01:02:00,
2013-04-08 18:10:00,51.0,45.0,-100.00,ENE,65,2.0,6.0,79,-99.99,,,-99.99,,2013-04-09 01:10:00,
2013-04-08 19:02:00,51.0,45.0,-100.00,ENE,65,2.0,6.0,79,-99.99,,,-99.99,,2013-04-09 02:02:00,
2013-04-08 19:10:00,47.0,45.0,-100.00,ENE,65,1.0,2.0,92,-99.99,,,-99.99,,2013-04-09 02:10:00,
2013-04-08 20:02:00,47.0,45.0,-100.00,ENE,65,1.0,2.0,92,-99.99,,,-99.99,,2013-04-09 03:02:00,
2013-04-08 20:10:00,46.0,46.0,-100.00,ENE,65,1.0,2.0,100,-99.99,,,-99.99,,2013-04-09 03:10:00,
2013-04-08 21:02:00,46.0,46.0,-100.00,ENE,65,1.0,2.0,100,-99.99,,,-99.99,,2013-04-09 04:02:00,
2013-04-08 21:10:00,45.0,45.0,-100.00,ESE,110,3.0,7.0,100,-99.99,,,-99.99,,2013-04-09 04:10:00,
2013-04-08 22:02:00,45.0,45.0,-100.00,ESE,110,3.0,7.0,100,-99.99,,,-99.99,,2013-04-09 05:02:00,
2013-04-08 22:10:00,44.0,44.0,-100.00,NE,50,0.0,3.0,100,-99.99,,,-99.99,,2013-04-09 05:10:00,
2013-04-08 23:02:00,44.0,44.0,-100.00,NE,50,0.0,3.0,100,-99.99,,,-99.99,,2013-04-09 06:02:00,
2013-04-08 23:10:00,43.0,43.0,-100.00,SE,135,1.0,3.0,100,-99.99,,,-99.99,,2013-04-09 06:10:00,